Terminal Aerodrome Forecast
Issued by NWS

Home | Current Version | Previous Version | Text Only | Print | Product List | Glossary On
Versions: 1 2 3 4 5 6 7 8 9 10 11 12 13 14 15 16 17 18 19 20 21 22 23 24 25 26 27 28
000
FTUS43 KDMX 240559 CCA
TAFFOD
TAF COR
KFOD 240559Z 2406/2506 28004KT P6SM OVC010
     FM240900 27004KT 5SM BR OVC004
     FM241400 27005KT P6SM BKN009
     FM241900 25007KT P6SM SCT009
     FM242200 21006KT P6SM SCT150
     FM250200 16004KT P6SM SCT150=

USA.gov is the U.S. government's official web portal to all federal, state and local government web resources and services.